sensor_id;sensor_type;location;lat;lon;timestamp;P1;durP1;ratioP1;P2;durP2;ratioP2
20657;SDS011;10488;50.846;4.078;2023-04-03T00:01:37;28.70;;;20.07;;
20657;SDS011;10488;50.846;4.078;2023-04-03T00:04:05;26.43;;;18.73;;
20657;SDS011;10488;50.846;4.078;2023-04-03T00:06:31;28.30;;;19.97;;
20657;SDS011;10488;50.846;4.078;2023-04-03T00:08:57;28.63;;;19.03;;
20657;SDS011;10488;50.846;4.078;2023-04-03T00:11:23;33.63;;;19.00;;
20657;SDS011;10488;50.846;4.078;2023-04-03T00:13:50;27.30;;;19.30;;
20657;SDS011;10488;50.846;4.078;2023-04-03T00:16:16;28.33;;;17.77;;
20657;SDS011;10488;50.846;4.078;2023-04-03T00:18:43;26.70;;;17.77;;
20657;SDS011;10488;50.846;4.078;2023-04-03T00:21:10;33.23;;;21.20;;
20657;SDS011;10488;50.846;4.078;2023-04-03T00:23:37;29.60;;;18.73;;
20657;SDS011;10488;50.846;4.078;2023-04-03T00:26:04;28.30;;;19.23;;
20657;SDS011;10488;50.846;4.078;2023-04-03T00:28:30;25.17;;;18.60;;
20657;SDS011;10488;50.846;4.078;2023-04-03T00:30:55;24.83;;;17.87;;
20657;SDS011;10488;50.846;4.078;2023-04-03T00:33:21;29.00;;;19.37;;
20657;SDS011;10488;50.846;4.078;2023-04-03T00:35:47;26.37;;;18.27;;
20657;SDS011;10488;50.846;4.078;2023-04-03T00:38:13;30.67;;;20.30;;
20657;SDS011;10488;50.846;4.078;2023-04-03T00:40:42;27.03;;;18.10;;
20657;SDS011;10488;50.846;4.078;2023-04-03T00:43:13;29.97;;;20.50;;
20657;SDS011;10488;50.846;4.078;2023-04-03T00:45:49;30.33;;;17.50;;
20657;SDS011;10488;50.846;4.078;2023-04-03T00:51:02;33.93;;;19.97;;
20657;SDS011;10488;50.846;4.078;2023-04-03T00:53:34;31.33;;;20.00;;
20657;SDS011;10488;50.846;4.078;2023-04-03T00:56:05;35.20;;;20.87;;
20657;SDS011;10488;50.846;4.078;2023-04-03T00:58:38;28.73;;;19.77;;
20657;SDS011;10488;50.846;4.078;2023-04-03T01:01:10;29.17;;;19.40;;
20657;SDS011;10488;50.846;4.078;2023-04-03T01:03:40;32.63;;;19.37;;
20657;SDS011;10488;50.846;4.078;2023-04-03T01:06:06;29.53;;;20.00;;
20657;SDS011;10488;50.846;4.078;2023-04-03T01:08:32;27.07;;;19.07;;
20657;SDS011;10488;50.846;4.078;2023-04-03T01:10:58;33.93;;;19.80;;
20657;SDS011;10488;50.846;4.078;2023-04-03T01:13:28;31.30;;;19.17;;
20657;SDS011;10488;50.846;4.078;2023-04-03T01:15:56;28.20;;;18.53;;
20657;SDS011;10488;50.846;4.078;2023-04-03T01:18:24;30.83;;;19.37;;
20657;SDS011;10488;50.846;4.078;2023-04-03T01:20:57;24.80;;;16.60;;
20657;SDS011;10488;50.846;4.078;2023-04-03T01:23:53;25.43;;;16.97;;
20657;SDS011;10488;50.846;4.078;2023-04-03T01:26:22;24.83;;;16.73;;
20657;SDS011;10488;50.846;4.078;2023-04-03T01:28:48;27.00;;;16.87;;
20657;SDS011;10488;50.846;4.078;2023-04-03T01:33:45;26.47;;;16.03;;
20657;SDS011;10488;50.846;4.078;2023-04-03T01:36:16;29.67;;;16.67;;
20657;SDS011;10488;50.846;4.078;2023-04-03T01:41:13;27.07;;;17.73;;
20657;SDS011;10488;50.846;4.078;2023-04-03T01:43:42;30.93;;;15.60;;
20657;SDS011;10488;50.846;4.078;2023-04-03T01:46:08;26.50;;;15.80;;
20657;SDS011;10488;50.846;4.078;2023-04-03T01:48:34;29.37;;;15.43;;
20657;SDS011;10488;50.846;4.078;2023-04-03T01:53:28;25.57;;;15.30;;
20657;SDS011;10488;50.846;4.078;2023-04-03T01:55:55;25.53;;;15.87;;
20657;SDS011;10488;50.846;4.078;2023-04-03T01:58:21;24.57;;;14.43;;
20657;SDS011;10488;50.846;4.078;2023-04-03T02:00:47;24.57;;;14.67;;
20657;SDS011;10488;50.846;4.078;2023-04-03T02:03:13;30.20;;;15.87;;
20657;SDS011;10488;50.846;4.078;2023-04-03T02:05:41;23.57;;;15.27;;
20657;SDS011;10488;50.846;4.078;2023-04-03T02:10:35;26.67;;;15.10;;
20657;SDS011;10488;50.846;4.078;2023-04-03T02:13:01;28.93;;;15.60;;
20657;SDS011;10488;50.846;4.078;2023-04-03T02:15:27;24.47;;;15.43;;
20657;SDS011;10488;50.846;4.078;2023-04-03T02:17:55;25.40;;;14.80;;
20657;SDS011;10488;50.846;4.078;2023-04-03T02:20:21;23.10;;;14.27;;
20657;SDS011;10488;50.846;4.078;2023-04-03T02:22:48;25.53;;;14.57;;
20657;SDS011;10488;50.846;4.078;2023-04-03T02:25:17;25.03;;;14.23;;
20657;SDS011;10488;50.846;4.078;2023-04-03T02:27:43;21.63;;;14.03;;
20657;SDS011;10488;50.846;4.078;2023-04-03T02:30:08;22.30;;;13.63;;
20657;SDS011;10488;50.846;4.078;2023-04-03T02:32:41;22.23;;;14.10;;
20657;SDS011;10488;50.846;4.078;2023-04-03T02:35:10;20.37;;;13.70;;
20657;SDS011;10488;50.846;4.078;2023-04-03T02:37:41;21.03;;;13.33;;
20657;SDS011;10488;50.846;4.078;2023-04-03T02:40:07;25.00;;;13.77;;
20657;SDS011;10488;50.846;4.078;2023-04-03T02:42:35;21.93;;;13.87;;
20657;SDS011;10488;50.846;4.078;2023-04-03T02:45:02;25.47;;;14.20;;
20657;SDS011;10488;50.846;4.078;2023-04-03T02:47:28;24.47;;;13.87;;
20657;SDS011;10488;50.846;4.078;2023-04-03T02:49:53;25.07;;;13.80;;
20657;SDS011;10488;50.846;4.078;2023-04-03T02:52:25;27.30;;;14.20;;
20657;SDS011;10488;50.846;4.078;2023-04-03T02:54:52;22.43;;;13.30;;
20657;SDS011;10488;50.846;4.078;2023-04-03T02:57:17;22.30;;;13.97;;
20657;SDS011;10488;50.846;4.078;2023-04-03T02:59:45;22.17;;;13.07;;
20657;SDS011;10488;50.846;4.078;2023-04-03T03:02:11;23.90;;;14.47;;
20657;SDS011;10488;50.846;4.078;2023-04-03T03:04:36;23.00;;;13.43;;
20657;SDS011;10488;50.846;4.078;2023-04-03T03:07:03;23.07;;;13.83;;
20657;SDS011;10488;50.846;4.078;2023-04-03T03:09:29;21.43;;;13.53;;
20657;SDS011;10488;50.846;4.078;2023-04-03T03:11:55;25.50;;;13.80;;
20657;SDS011;10488;50.846;4.078;2023-04-03T03:14:22;31.60;;;14.67;;
20657;SDS011;10488;50.846;4.078;2023-04-03T03:16:49;23.53;;;14.53;;
20657;SDS011;10488;50.846;4.078;2023-04-03T03:19:15;28.80;;;13.73;;
20657;SDS011;10488;50.846;4.078;2023-04-03T03:21:41;25.83;;;13.13;;
20657;SDS011;10488;50.846;4.078;2023-04-03T03:24:07;19.77;;;12.50;;
20657;SDS011;10488;50.846;4.078;2023-04-03T03:26:33;29.17;;;13.23;;
20657;SDS011;10488;50.846;4.078;2023-04-03T03:28:59;24.90;;;14.33;;
20657;SDS011;10488;50.846;4.078;2023-04-03T03:31:25;21.60;;;13.10;;
20657;SDS011;10488;50.846;4.078;2023-04-03T03:33:52;24.87;;;12.67;;
20657;SDS011;10488;50.846;4.078;2023-04-03T03:36:19;21.10;;;12.77;;
20657;SDS011;10488;50.846;4.078;2023-04-03T03:38:47;21.73;;;11.83;;
20657;SDS011;10488;50.846;4.078;2023-04-03T03:41:13;24.47;;;13.40;;
20657;SDS011;10488;50.846;4.078;2023-04-03T03:43:39;19.90;;;12.53;;
20657;SDS011;10488;50.846;4.078;2023-04-03T03:46:05;20.03;;;12.67;;
20657;SDS011;10488;50.846;4.078;2023-04-03T03:48:33;35.33;;;14.70;;
20657;SDS011;10488;50.846;4.078;2023-04-03T03:51:01;28.37;;;14.47;;
20657;SDS011;10488;50.846;4.078;2023-04-03T03:53:29;23.73;;;15.20;;
20657;SDS011;10488;50.846;4.078;2023-04-03T03:55:54;24.07;;;13.83;;
20657;SDS011;10488;50.846;4.078;2023-04-03T03:58:20;25.37;;;13.20;;
20657;SDS011;10488;50.846;4.078;2023-04-03T04:00:52;25.83;;;14.57;;
20657;SDS011;10488;50.846;4.078;2023-04-03T04:03:18;24.17;;;13.67;;
20657;SDS011;10488;50.846;4.078;2023-04-03T04:05:45;21.73;;;13.70;;
20657;SDS011;10488;50.846;4.078;2023-04-03T04:08:11;22.80;;;13.27;;
20657;SDS011;10488;50.846;4.078;2023-04-03T04:10:36;25.90;;;14.33;;
20657;SDS011;10488;50.846;4.078;2023-04-03T04:13:02;22.87;;;13.10;;
20657;SDS011;10488;50.846;4.078;2023-04-03T04:15:28;19.37;;;13.30;;
20657;SDS011;10488;50.846;4.078;2023-04-03T04:17:54;20.33;;;13.60;;
20657;SDS011;10488;50.846;4.078;2023-04-03T04:20:20;23.30;;;14.97;;
20657;SDS011;10488;50.846;4.078;2023-04-03T04:22:46;22.63;;;13.47;;
20657;SDS011;10488;50.846;4.078;2023-04-03T04:25:12;23.00;;;14.20;;
20657;SDS011;10488;50.846;4.078;2023-04-03T04:27:38;25.83;;;14.80;;
20657;SDS011;10488;50.846;4.078;2023-04-03T04:30:06;24.33;;;13.60;;
20657;SDS011;10488;50.846;4.078;2023-04-03T04:32:32;24.73;;;15.47;;
20657;SDS011;10488;50.846;4.078;2023-04-03T04:34:58;25.23;;;13.10;;
20657;SDS011;10488;50.846;4.078;2023-04-03T04:37:24;25.67;;;14.80;;
20657;SDS011;10488;50.846;4.078;2023-04-03T04:39:50;26.27;;;15.30;;
20657;SDS011;10488;50.846;4.078;2023-04-03T04:42:16;23.50;;;13.27;;
20657;SDS011;10488;50.846;4.078;2023-04-03T04:44:41;24.83;;;15.27;;
20657;SDS011;10488;50.846;4.078;2023-04-03T04:47:07;31.10;;;15.93;;
20657;SDS011;10488;50.846;4.078;2023-04-03T04:49:33;24.63;;;15.10;;
20657;SDS011;10488;50.846;4.078;2023-04-03T04:51:59;25.73;;;15.53;;
20657;SDS011;10488;50.846;4.078;2023-04-03T04:54:26;20.47;;;14.70;;
20657;SDS011;10488;50.846;4.078;2023-04-03T04:56:52;22.57;;;13.83;;
20657;SDS011;10488;50.846;4.078;2023-04-03T04:59:18;26.77;;;15.47;;
20657;SDS011;10488;50.846;4.078;2023-04-03T05:01:44;19.40;;;13.53;;
20657;SDS011;10488;50.846;4.078;2023-04-03T05:04:12;25.17;;;14.83;;
20657;SDS011;10488;50.846;4.078;2023-04-03T05:06:39;29.17;;;15.43;;
20657;SDS011;10488;50.846;4.078;2023-04-03T05:09:05;27.67;;;15.60;;
20657;SDS011;10488;50.846;4.078;2023-04-03T05:11:31;27.20;;;16.17;;
20657;SDS011;10488;50.846;4.078;2023-04-03T05:13:58;23.87;;;15.77;;
20657;SDS011;10488;50.846;4.078;2023-04-03T05:16:24;24.00;;;15.83;;
20657;SDS011;10488;50.846;4.078;2023-04-03T05:18:50;26.77;;;15.87;;
20657;SDS011;10488;50.846;4.078;2023-04-03T05:21:16;28.23;;;15.50;;
20657;SDS011;10488;50.846;4.078;2023-04-03T05:23:43;22.13;;;14.70;;
20657;SDS011;10488;50.846;4.078;2023-04-03T05:26:08;28.67;;;15.13;;
20657;SDS011;10488;50.846;4.078;2023-04-03T05:28:35;20.83;;;14.40;;
20657;SDS011;10488;50.846;4.078;2023-04-03T05:31:01;26.40;;;15.60;;
20657;SDS011;10488;50.846;4.078;2023-04-03T05:33:27;27.43;;;15.27;;
20657;SDS011;10488;50.846;4.078;2023-04-03T05:35:54;29.40;;;15.67;;
20657;SDS011;10488;50.846;4.078;2023-04-03T05:38:19;27.40;;;16.30;;
20657;SDS011;10488;50.846;4.078;2023-04-03T05:40:45;22.10;;;14.30;;
20657;SDS011;10488;50.846;4.078;2023-04-03T05:43:11;29.03;;;15.70;;
20657;SDS011;10488;50.846;4.078;2023-04-03T05:45:37;26.73;;;16.10;;
20657;SDS011;10488;50.846;4.078;2023-04-03T05:48:02;30.40;;;15.83;;
20657;SDS011;10488;50.846;4.078;2023-04-03T05:50:31;27.07;;;16.80;;
20657;SDS011;10488;50.846;4.078;2023-04-03T05:52:57;29.77;;;18.10;;
20657;SDS011;10488;50.846;4.078;2023-04-03T05:55:24;33.83;;;20.53;;
20657;SDS011;10488;50.846;4.078;2023-04-03T05:57:51;30.63;;;21.87;;
20657;SDS011;10488;50.846;4.078;2023-04-03T06:00:16;28.33;;;18.80;;
20657;SDS011;10488;50.846;4.078;2023-04-03T06:02:48;26.13;;;16.60;;
20657;SDS011;10488;50.846;4.078;2023-04-03T06:05:14;22.80;;;15.80;;
20657;SDS011;10488;50.846;4.078;2023-04-03T06:07:40;17.05;;;12.77;;
20657;SDS011;10488;50.846;4.078;2023-04-03T06:10:05;16.23;;;10.60;;
20657;SDS011;10488;50.846;4.078;2023-04-03T06:12:32;10.48;;;7.53;;
20657;SDS011;10488;50.846;4.078;2023-04-03T06:14:58;9.02;;;8.05;;
20657;SDS011;10488;50.846;4.078;2023-04-03T06:17:23;11.52;;;6.75;;
20657;SDS011;10488;50.846;4.078;2023-04-03T06:19:49;13.63;;;9.40;;
20657;SDS011;10488;50.846;4.078;2023-04-03T06:22:15;22.85;;;13.45;;
20657;SDS011;10488;50.846;4.078;2023-04-03T06:24:40;17.25;;;12.15;;
20657;SDS011;10488;50.846;4.078;2023-04-03T06:27:07;10.05;;;6.93;;
20657;SDS011;10488;50.846;4.078;2023-04-03T06:29:33;11.07;;;8.25;;
20657;SDS011;10488;50.846;4.078;2023-04-03T06:31:58;8.32;;;6.85;;
20657;SDS011;10488;50.846;4.078;2023-04-03T06:34:24;16.35;;;10.50;;
20657;SDS011;10488;50.846;4.078;2023-04-03T06:36:50;21.90;;;13.70;;
20657;SDS011;10488;50.846;4.078;2023-04-03T06:39:19;8.88;;;5.55;;
20657;SDS011;10488;50.846;4.078;2023-04-03T06:41:47;12.63;;;6.97;;
20657;SDS011;10488;50.846;4.078;2023-04-03T06:44:13;9.75;;;6.35;;
20657;SDS011;10488;50.846;4.078;2023-04-03T06:46:41;14.30;;;7.60;;
20657;SDS011;10488;50.846;4.078;2023-04-03T06:49:07;10.15;;;6.38;;
20657;SDS011;10488;50.846;4.078;2023-04-03T06:51:34;7.80;;;5.63;;
20657;SDS011;10488;50.846;4.078;2023-04-03T06:54:01;19.63;;;12.52;;
20657;SDS011;10488;50.846;4.078;2023-04-03T06:56:28;13.93;;;7.60;;
20657;SDS011;10488;50.846;4.078;2023-04-03T06:58:55;18.13;;;10.73;;
20657;SDS011;10488;50.846;4.078;2023-04-03T07:01:23;9.55;;;7.20;;
20657;SDS011;10488;50.846;4.078;2023-04-03T07:03:51;6.28;;;5.68;;
20657;SDS011;10488;50.846;4.078;2023-04-03T07:06:17;10.15;;;6.38;;
20657;SDS011;10488;50.846;4.078;2023-04-03T07:08:45;10.93;;;6.80;;
20657;SDS011;10488;50.846;4.078;2023-04-03T07:11:11;15.50;;;8.38;;
20657;SDS011;10488;50.846;4.078;2023-04-03T07:13:37;29.00;;;14.93;;
20657;SDS011;10488;50.846;4.078;2023-04-03T07:16:03;17.60;;;10.10;;
20657;SDS011;10488;50.846;4.078;2023-04-03T07:18:31;12.77;;;6.95;;
20657;SDS011;10488;50.846;4.078;2023-04-03T07:20:57;12.90;;;7.85;;
20657;SDS011;10488;50.846;4.078;2023-04-03T07:23:23;12.07;;;7.28;;
20657;SDS011;10488;50.846;4.078;2023-04-03T07:25:50;9.52;;;7.00;;
20657;SDS011;10488;50.846;4.078;2023-04-03T07:28:17;13.43;;;7.07;;
20657;SDS011;10488;50.846;4.078;2023-04-03T07:30:48;9.05;;;6.82;;
20657;SDS011;10488;50.846;4.078;2023-04-03T07:33:15;21.20;;;15.25;;
20657;SDS011;10488;50.846;4.078;2023-04-03T07:35:42;10.60;;;6.93;;
20657;SDS011;10488;50.846;4.078;2023-04-03T07:38:08;22.73;;;18.10;;
20657;SDS011;10488;50.846;4.078;2023-04-03T07:40:34;10.38;;;7.70;;
20657;SDS011;10488;50.846;4.078;2023-04-03T07:43:01;10.20;;;7.22;;
20657;SDS011;10488;50.846;4.078;2023-04-03T07:45:27;9.15;;;7.55;;
20657;SDS011;10488;50.846;4.078;2023-04-03T07:47:53;10.43;;;6.38;;
20657;SDS011;10488;50.846;4.078;2023-04-03T07:50:19;18.10;;;12.60;;
20657;SDS011;10488;50.846;4.078;2023-04-03T07:52:47;27.85;;;20.98;;
20657;SDS011;10488;50.846;4.078;2023-04-03T07:55:13;9.68;;;7.05;;
20657;SDS011;10488;50.846;4.078;2023-04-03T07:57:39;9.35;;;7.10;;
20657;SDS011;10488;50.846;4.078;2023-04-03T08:00:05;19.38;;;6.65;;
20657;SDS011;10488;50.846;4.078;2023-04-03T08:02:32;10.00;;;7.03;;
20657;SDS011;10488;50.846;4.078;2023-04-03T08:04:58;8.38;;;5.88;;
20657;SDS011;10488;50.846;4.078;2023-04-03T08:07:24;9.75;;;6.45;;
20657;SDS011;10488;50.846;4.078;2023-04-03T08:09:51;8.13;;;6.15;;
20657;SDS011;10488;50.846;4.078;2023-04-03T08:12:17;9.43;;;5.18;;
20657;SDS011;10488;50.846;4.078;2023-04-03T08:14:42;7.65;;;5.75;;
20657;SDS011;10488;50.846;4.078;2023-04-03T08:17:08;8.68;;;5.55;;
20657;SDS011;10488;50.846;4.078;2023-04-03T08:19:36;7.80;;;5.05;;
20657;SDS011;10488;50.846;4.078;2023-04-03T08:22:03;8.02;;;5.60;;
20657;SDS011;10488;50.846;4.078;2023-04-03T08:24:30;10.93;;;5.20;;
20657;SDS011;10488;50.846;4.078;2023-04-03T08:26:56;7.30;;;5.15;;
20657;SDS011;10488;50.846;4.078;2023-04-03T08:29:22;7.45;;;4.53;;
20657;SDS011;10488;50.846;4.078;2023-04-03T08:31:48;5.95;;;4.60;;
20657;SDS011;10488;50.846;4.078;2023-04-03T08:34:15;7.85;;;5.20;;
20657;SDS011;10488;50.846;4.078;2023-04-03T08:36:41;7.05;;;5.25;;
20657;SDS011;10488;50.846;4.078;2023-04-03T08:39:07;7.28;;;5.07;;
20657;SDS011;10488;50.846;4.078;2023-04-03T08:41:37;7.97;;;5.38;;
20657;SDS011;10488;50.846;4.078;2023-04-03T08:49:22;7.53;;;5.70;;
20657;SDS011;10488;50.846;4.078;2023-04-03T08:51:53;9.95;;;4.90;;
20657;SDS011;10488;50.846;4.078;2023-04-03T08:55:03;11.35;;;4.65;;
20657;SDS011;10488;50.846;4.078;2023-04-03T08:57:30;6.15;;;4.38;;
20657;SDS011;10488;50.846;4.078;2023-04-03T09:00:18;7.57;;;4.50;;
20657;SDS011;10488;50.846;4.078;2023-04-03T09:02:49;5.97;;;4.65;;
20657;SDS011;10488;50.846;4.078;2023-04-03T09:05:18;7.72;;;4.97;;
20657;SDS011;10488;50.846;4.078;2023-04-03T09:07:47;7.32;;;4.97;;
20657;SDS011;10488;50.846;4.078;2023-04-03T09:10:24;8.30;;;5.88;;
20657;SDS011;10488;50.846;4.078;2023-04-03T09:13:05;7.05;;;4.55;;
20657;SDS011;10488;50.846;4.078;2023-04-03T09:15:35;6.35;;;4.45;;
20657;SDS011;10488;50.846;4.078;2023-04-03T09:23:24;8.65;;;4.47;;
20657;SDS011;10488;50.846;4.078;2023-04-03T09:26:00;7.88;;;4.80;;
20657;SDS011;10488;50.846;4.078;2023-04-03T09:28:31;8.25;;;4.35;;
20657;SDS011;10488;50.846;4.078;2023-04-03T09:31:00;7.00;;;4.80;;
20657;SDS011;10488;50.846;4.078;2023-04-03T09:33:27;8.45;;;5.07;;
20657;SDS011;10488;50.846;4.078;2023-04-03T09:35:55;6.47;;;3.45;;
20657;SDS011;10488;50.846;4.078;2023-04-03T09:38:21;6.10;;;4.10;;
20657;SDS011;10488;50.846;4.078;2023-04-03T09:40:48;13.15;;;5.35;;
20657;SDS011;10488;50.846;4.078;2023-04-03T09:43:34;85.95;;;45.60;;
20657;SDS011;10488;50.846;4.078;2023-04-03T09:48:58;8.15;;;4.43;;
20657;SDS011;10488;50.846;4.078;2023-04-03T09:51:26;72.10;;;30.23;;
20657;SDS011;10488;50.846;4.078;2023-04-03T09:53:56;15.55;;;7.63;;
20657;SDS011;10488;50.846;4.078;2023-04-03T09:59:13;16.63;;;7.70;;
20657;SDS011;10488;50.846;4.078;2023-04-03T10:01:41;20.05;;;8.63;;
20657;SDS011;10488;50.846;4.078;2023-04-03T10:04:15;23.48;;;12.52;;
20657;SDS011;10488;50.846;4.078;2023-04-03T10:06:51;20.42;;;11.60;;
20657;SDS011;10488;50.846;4.078;2023-04-03T10:09:25;7.00;;;4.63;;
20657;SDS011;10488;50.846;4.078;2023-04-03T10:20:04;10.30;;;5.90;;
20657;SDS011;10488;50.846;4.078;2023-04-03T10:22:56;6.30;;;3.35;;
20657;SDS011;10488;50.846;4.078;2023-04-03T10:28:31;5.93;;;3.63;;
20657;SDS011;10488;50.846;4.078;2023-04-03T10:36:33;6.03;;;3.10;;
20657;SDS011;10488;50.846;4.078;2023-04-03T10:49:46;8.68;;;4.68;;
20657;SDS011;10488;50.846;4.078;2023-04-03T10:52:24;6.25;;;2.65;;
20657;SDS011;10488;50.846;4.078;2023-04-03T10:55:03;5.72;;;2.40;;
20657;SDS011;10488;50.846;4.078;2023-04-03T10:57:56;7.63;;;3.80;;
20657;SDS011;10488;50.846;4.078;2023-04-03T11:00:45;3.55;;;2.15;;
20657;SDS011;10488;50.846;4.078;2023-04-03T11:03:14;8.93;;;4.97;;
20657;SDS011;10488;50.846;4.078;2023-04-03T11:05:42;11.27;;;6.88;;
20657;SDS011;10488;50.846;4.078;2023-04-03T11:08:13;10.55;;;7.65;;
20657;SDS011;10488;50.846;4.078;2023-04-03T11:10:56;6.43;;;2.30;;
20657;SDS011;10488;50.846;4.078;2023-04-03T11:13:27;3.00;;;1.85;;
20657;SDS011;10488;50.846;4.078;2023-04-03T11:15:59;6.32;;;4.45;;
20657;SDS011;10488;50.846;4.078;2023-04-03T11:18:45;3.65;;;1.70;;
20657;SDS011;10488;50.846;4.078;2023-04-03T11:21:27;3.65;;;1.73;;
20657;SDS011;10488;50.846;4.078;2023-04-03T11:23:57;3.55;;;1.88;;
20657;SDS011;10488;50.846;4.078;2023-04-03T11:26:26;2.92;;;1.83;;
20657;SDS011;10488;50.846;4.078;2023-04-03T11:28:56;5.03;;;2.47;;
20657;SDS011;10488;50.846;4.078;2023-04-03T11:37:05;2.88;;;2.10;;
20657;SDS011;10488;50.846;4.078;2023-04-03T11:39:47;7.90;;;2.60;;
20657;SDS011;10488;50.846;4.078;2023-04-03T11:45:15;4.25;;;1.70;;
20657;SDS011;10488;50.846;4.078;2023-04-03T11:47:48;4.07;;;2.33;;
20657;SDS011;10488;50.846;4.078;2023-04-03T11:50:32;3.63;;;1.40;;
20657;SDS011;10488;50.846;4.078;2023-04-03T12:08:29;9.45;;;2.83;;
20657;SDS011;10488;50.846;4.078;2023-04-03T12:13:34;4.90;;;2.03;;
20657;SDS011;10488;50.846;4.078;2023-04-03T12:16:06;4.25;;;1.90;;
20657;SDS011;10488;50.846;4.078;2023-04-03T12:21:22;4.30;;;1.88;;
20657;SDS011;10488;50.846;4.078;2023-04-03T12:40:26;4.40;;;1.67;;
20657;SDS011;10488;50.846;4.078;2023-04-03T12:48:17;4.20;;;1.80;;
20657;SDS011;10488;50.846;4.078;2023-04-03T12:50:47;3.10;;;1.90;;
20657;SDS011;10488;50.846;4.078;2023-04-03T12:53:16;3.40;;;1.70;;
20657;SDS011;10488;50.846;4.078;2023-04-03T12:55:56;3.55;;;1.80;;
20657;SDS011;10488;50.846;4.078;2023-04-03T12:58:42;5.18;;;1.90;;
20657;SDS011;10488;50.846;4.078;2023-04-03T13:01:12;6.00;;;2.22;;
20657;SDS011;10488;50.846;4.078;2023-04-03T13:03:43;2.47;;;1.60;;
20657;SDS011;10488;50.846;4.078;2023-04-03T13:06:22;3.75;;;2.25;;
20657;SDS011;10488;50.846;4.078;2023-04-03T13:08:54;3.25;;;1.70;;
20657;SDS011;10488;50.846;4.078;2023-04-03T13:11:23;3.05;;;1.75;;
20657;SDS011;10488;50.846;4.078;2023-04-03T13:13:58;3.22;;;1.50;;
20657;SDS011;10488;50.846;4.078;2023-04-03T13:16:27;5.60;;;1.88;;
20657;SDS011;10488;50.846;4.078;2023-04-03T13:18:53;3.47;;;1.63;;
20657;SDS011;10488;50.846;4.078;2023-04-03T13:21:37;6.47;;;2.05;;
20657;SDS011;10488;50.846;4.078;2023-04-03T13:24:03;6.45;;;2.08;;
20657;SDS011;10488;50.846;4.078;2023-04-03T13:26:30;4.78;;;1.40;;
20657;SDS011;10488;50.846;4.078;2023-04-03T13:29:04;2.40;;;1.70;;
20657;SDS011;10488;50.846;4.078;2023-04-03T13:31:32;4.20;;;1.50;;
20657;SDS011;10488;50.846;4.078;2023-04-03T13:36:43;6.18;;;2.00;;
20657;SDS011;10488;50.846;4.078;2023-04-03T13:41:40;4.13;;;1.65;;
20657;SDS011;10488;50.846;4.078;2023-04-03T13:44:15;8.88;;;4.75;;
20657;SDS011;10488;50.846;4.078;2023-04-03T13:46:42;6.28;;;2.22;;
20657;SDS011;10488;50.846;4.078;2023-04-03T13:51:56;10.73;;;5.82;;
20657;SDS011;10488;50.846;4.078;2023-04-03T13:54:23;3.97;;;1.65;;
20657;SDS011;10488;50.846;4.078;2023-04-03T13:56:58;3.72;;;1.40;;
20657;SDS011;10488;50.846;4.078;2023-04-03T13:59:27;20.92;;;12.60;;
20657;SDS011;10488;50.846;4.078;2023-04-03T14:04:50;11.75;;;5.60;;
20657;SDS011;10488;50.846;4.078;2023-04-03T14:07:25;22.48;;;11.80;;
20657;SDS011;10488;50.846;4.078;2023-04-03T14:09:51;13.38;;;7.50;;
20657;SDS011;10488;50.846;4.078;2023-04-03T14:12:24;5.25;;;3.22;;
20657;SDS011;10488;50.846;4.078;2023-04-03T14:14:59;5.70;;;1.50;;
20657;SDS011;10488;50.846;4.078;2023-04-03T14:17:26;3.45;;;1.40;;
20657;SDS011;10488;50.846;4.078;2023-04-03T14:19:53;10.45;;;6.72;;
20657;SDS011;10488;50.846;4.078;2023-04-03T14:22:28;7.10;;;4.32;;
20657;SDS011;10488;50.846;4.078;2023-04-03T14:24:56;6.82;;;2.08;;
20657;SDS011;10488;50.846;4.078;2023-04-03T14:27:23;4.40;;;1.80;;
20657;SDS011;10488;50.846;4.078;2023-04-03T14:29:52;2.38;;;1.40;;
20657;SDS011;10488;50.846;4.078;2023-04-03T14:32:19;2.60;;;1.67;;
20657;SDS011;10488;50.846;4.078;2023-04-03T14:34:47;3.80;;;1.42;;
20657;SDS011;10488;50.846;4.078;2023-04-03T14:37:15;3.45;;;2.03;;
20657;SDS011;10488;50.846;4.078;2023-04-03T14:39:43;4.70;;;2.38;;
20657;SDS011;10488;50.846;4.078;2023-04-03T14:42:13;5.63;;;3.03;;
20657;SDS011;10488;50.846;4.078;2023-04-03T14:44:41;5.13;;;3.17;;
20657;SDS011;10488;50.846;4.078;2023-04-03T14:47:10;7.10;;;2.88;;
20657;SDS011;10488;50.846;4.078;2023-04-03T14:49:41;3.03;;;1.85;;
20657;SDS011;10488;50.846;4.078;2023-04-03T14:52:29;3.03;;;1.80;;
20657;SDS011;10488;50.846;4.078;2023-04-03T14:54:55;5.07;;;2.90;;
20657;SDS011;10488;50.846;4.078;2023-04-03T14:57:21;4.20;;;1.95;;
20657;SDS011;10488;50.846;4.078;2023-04-03T14:59:51;4.82;;;2.40;;
20657;SDS011;10488;50.846;4.078;2023-04-03T15:04:57;4.63;;;2.17;;
20657;SDS011;10488;50.846;4.078;2023-04-03T15:07:24;72.35;;;30.92;;
20657;SDS011;10488;50.846;4.078;2023-04-03T15:09:52;30.98;;;10.85;;
20657;SDS011;10488;50.846;4.078;2023-04-03T15:12:21;6.72;;;2.42;;
20657;SDS011;10488;50.846;4.078;2023-04-03T15:14:47;8.65;;;3.75;;
20657;SDS011;10488;50.846;4.078;2023-04-03T15:17:21;67.95;;;35.45;;
20657;SDS011;10488;50.846;4.078;2023-04-03T15:19:48;7.78;;;4.18;;
20657;SDS011;10488;50.846;4.078;2023-04-03T15:22:18;5.47;;;2.88;;
20657;SDS011;10488;50.846;4.078;2023-04-03T15:24:44;16.20;;;9.32;;
20657;SDS011;10488;50.846;4.078;2023-04-03T15:27:11;7.68;;;2.25;;
20657;SDS011;10488;50.846;4.078;2023-04-03T15:29:38;4.13;;;1.65;;
20657;SDS011;10488;50.846;4.078;2023-04-03T15:32:06;3.60;;;1.50;;
20657;SDS011;10488;50.846;4.078;2023-04-03T15:34:35;3.85;;;2.00;;
20657;SDS011;10488;50.846;4.078;2023-04-03T15:37:01;5.07;;;2.75;;
20657;SDS011;10488;50.846;4.078;2023-04-03T15:39:26;11.45;;;7.82;;
20657;SDS011;10488;50.846;4.078;2023-04-03T15:41:52;8.18;;;4.93;;
20657;SDS011;10488;50.846;4.078;2023-04-03T15:44:19;13.75;;;8.77;;
20657;SDS011;10488;50.846;4.078;2023-04-03T15:46:46;4.78;;;1.42;;
20657;SDS011;10488;50.846;4.078;2023-04-03T15:49:13;15.20;;;3.67;;
20657;SDS011;10488;50.846;4.078;2023-04-03T15:51:40;2.65;;;1.52;;
20657;SDS011;10488;50.846;4.078;2023-04-03T15:54:05;30.95;;;17.63;;
20657;SDS011;10488;50.846;4.078;2023-04-03T15:56:31;22.38;;;11.27;;
20657;SDS011;10488;50.846;4.078;2023-04-03T15:58:57;14.77;;;7.97;;
20657;SDS011;10488;50.846;4.078;2023-04-03T16:01:22;12.55;;;7.00;;
20657;SDS011;10488;50.846;4.078;2023-04-03T16:03:48;7.35;;;4.80;;
20657;SDS011;10488;50.846;4.078;2023-04-03T16:06:15;4.15;;;2.40;;
20657;SDS011;10488;50.846;4.078;2023-04-03T16:08:41;3.10;;;2.30;;
20657;SDS011;10488;50.846;4.078;2023-04-03T16:11:07;6.50;;;2.90;;
20657;SDS011;10488;50.846;4.078;2023-04-03T16:13:33;4.50;;;1.38;;
20657;SDS011;10488;50.846;4.078;2023-04-03T16:15:59;1.95;;;1.40;;
20657;SDS011;10488;50.846;4.078;2023-04-03T16:18:27;6.97;;;1.95;;
20657;SDS011;10488;50.846;4.078;2023-04-03T16:20:53;3.42;;;1.73;;
20657;SDS011;10488;50.846;4.078;2023-04-03T16:23:19;2.40;;;1.63;;
20657;SDS011;10488;50.846;4.078;2023-04-03T16:25:45;2.83;;;1.05;;
20657;SDS011;10488;50.846;4.078;2023-04-03T16:28:14;3.40;;;1.50;;
20657;SDS011;10488;50.846;4.078;2023-04-03T16:30:45;3.30;;;1.42;;
20657;SDS011;10488;50.846;4.078;2023-04-03T16:33:12;4.07;;;1.27;;
20657;SDS011;10488;50.846;4.078;2023-04-03T16:35:38;3.17;;;1.88;;
20657;SDS011;10488;50.846;4.078;2023-04-03T16:38:04;9.07;;;1.77;;
20657;SDS011;10488;50.846;4.078;2023-04-03T16:40:30;5.53;;;2.20;;
20657;SDS011;10488;50.846;4.078;2023-04-03T16:42:58;5.80;;;2.60;;